Time;durP1;ratioP1;P1;durP2;ratioP2;P2;SDS_P1;SDS_P2;PMS_P1;PMS_P2;Temp;Humidity;BMP_temperature;BMP_pressure;BME280_temperature;BME280_humidity;BME280_pressure;Samples;Min_cycle;Max_cycle;Signal;HPM_P1;HPM_P2
2024/01/09 04:02:04;;;;;;;0.20;0.00;;;;;;;;;;4856997;29;20054;-91
2024/01/09 04:11:32;;;;;;;0.20;0.10;;;;;;;;;;4960866;23;20055;-84
2024/01/09 04:13:58;;;;;;;0.20;0.10;;;;;;;;;;4965758;28;20046;-85
2024/01/09 04:16:24;;;;;;;0.20;0.00;;;;;;;;;;4982667;28;20226;-85
2024/01/09 04:18:50;;;;;;;0.20;0.10;;;;;;;;;;4967269;28;20035;-84
2024/01/09 04:21:16;;;;;;;0.20;0.10;;;;;;;;;;4942937;28;20031;-84
2024/01/09 04:23:42;;;;;;;0.20;0.10;;;;;;;;;;4945937;29;20047;-85
2024/01/09 04:26:08;;;;;;;0.20;0.10;;;;;;;;;;4951767;29;20451;-84
2024/01/09 04:28:34;;;;;;;0.20;0.10;;;;;;;;;;4929366;29;20050;-84
2024/01/09 04:31:00;;;;;;;0.20;0.10;;;;;;;;;;4931785;29;20039;-85
2024/01/09 04:33:26;;;;;;;0.20;0.10;;;;;;;;;;4934374;29;20122;-83
2024/01/09 04:35:52;;;;;;;0.20;0.10;;;;;;;;;;4936340;29;20101;-84
2024/01/09 04:38:18;;;;;;;0.20;0.10;;;;;;;;;;4945740;29;20062;-84
2024/01/09 04:40:44;;;;;;;0.20;0.10;;;;;;;;;;4934514;29;20039;-84
2024/01/09 04:43:10;;;;;;;0.20;0.10;;;;;;;;;;4947295;29;20039;-84
2024/01/09 04:45:36;;;;;;;0.20;0.10;;;;;;;;;;4935164;29;20115;-85
2024/01/09 04:48:02;;;;;;;0.20;0.10;;;;;;;;;;4933414;29;20499;-83
2024/01/09 04:50:28;;;;;;;0.20;0.10;;;;;;;;;;4947704;28;20035;-84
2024/01/09 04:52:54;;;;;;;0.20;0.10;;;;;;;;;;4933410;29;20039;-84
2024/01/09 04:55:20;;;;;;;0.20;0.10;;;;;;;;;;4947673;29;20050;-84
2024/01/09 04:57:46;;;;;;;0.20;0.10;;;;;;;;;;4948293;29;20504;-83
2024/01/09 05:00:12;;;;;;;0.20;0.10;;;;;;;;;;4948205;28;20054;-84
2024/01/09 05:02:38;;;;;;;0.20;0.10;;;;;;;;;;4931982;29;20069;-85
2024/01/09 05:05:04;;;;;;;0.20;0.10;;;;;;;;;;4949363;29;20521;-84
2024/01/09 05:07:30;;;;;;;0.20;0.10;;;;;;;;;;4929369;29;20062;-84
2024/01/09 05:09:56;;;;;;;0.20;0.10;;;;;;;;;;4950879;29;20043;-83
2024/01/09 05:12:22;;;;;;;0.20;0.10;;;;;;;;;;4950908;29;20096;-84
2024/01/09 05:14:48;;;;;;;0.20;0.10;;;;;;;;;;4946567;29;20546;-83
2024/01/09 05:17:14;;;;;;;0.28;0.20;;;;;;;;;;4949900;29;20426;-83
2024/01/09 05:19:40;;;;;;;0.20;0.20;;;;;;;;;;4932133;28;20127;-84
2024/01/09 05:22:06;;;;;;;0.20;0.10;;;;;;;;;;4920906;29;20099;-84
2024/01/09 05:24:32;;;;;;;0.20;0.10;;;;;;;;;;4940616;28;20076;-83
2024/01/09 05:26:58;;;;;;;0.20;0.10;;;;;;;;;;4947677;29;20043;-85
2024/01/09 05:29:24;;;;;;;0.20;0.10;;;;;;;;;;4935474;29;20039;-84
2024/01/09 05:31:51;;;;;;;0.20;0.10;;;;;;;;;;4930535;29;20053;-84
2024/01/09 05:34:17;;;;;;;0.20;0.10;;;;;;;;;;4934544;29;20097;-82
2024/01/09 05:36:43;;;;;;;0.20;0.10;;;;;;;;;;4931492;29;20153;-84
2024/01/09 05:39:10;;;;;;;0.20;0.10;;;;;;;;;;4943626;29;20031;-83
2024/01/09 05:41:36;;;;;;;2.10;0.95;;;;;;;;;;4923943;29;20050;-84
2024/01/09 05:44:02;;;;;;;0.20;0.10;;;;;;;;;;4932003;29;20062;-84
2024/01/09 05:46:28;;;;;;;0.20;0.10;;;;;;;;;;4928874;29;20054;-84
2024/01/09 05:48:54;;;;;;;0.20;0.10;;;;;;;;;;4943428;29;20035;-85
2024/01/09 05:51:20;;;;;;;0.20;0.17;;;;;;;;;;4923312;29;20377;-84
2024/01/09 05:53:47;;;;;;;0.20;0.10;;;;;;;;;;4945462;29;20046;-84
2024/01/09 05:56:13;;;;;;;0.20;0.10;;;;;;;;;;4926558;29;20032;-84
2024/01/09 05:58:39;;;;;;;0.20;0.10;;;;;;;;;;4929274;29;20040;-84
2024/01/09 06:01:05;;;;;;;0.30;0.13;;;;;;;;;;4921604;29;20052;-83
2024/01/09 06:03:31;;;;;;;0.20;0.10;;;;;;;;;;4946611;29;20044;-84
2024/01/09 06:05:57;;;;;;;0.20;0.10;;;;;;;;;;4929729;29;20039;-84
2024/01/09 06:08:24;;;;;;;0.20;0.10;;;;;;;;;;4930298;29;20417;-84
2024/01/09 06:10:50;;;;;;;0.20;0.10;;;;;;;;;;4948244;29;20427;-84
2024/01/09 06:13:16;;;;;;;0.20;0.15;;;;;;;;;;4938248;29;20082;-84
2024/01/09 06:15:42;;;;;;;0.20;0.10;;;;;;;;;;4934004;29;20502;-84
2024/01/09 06:18:08;;;;;;;0.20;0.10;;;;;;;;;;4934375;29;20082;-83
2024/01/09 06:20:34;;;;;;;0.20;0.10;;;;;;;;;;4940923;29;20043;-84
2024/01/09 06:23:00;;;;;;;0.20;0.10;;;;;;;;;;4950648;29;20050;-85
2024/01/09 06:25:26;;;;;;;0.20;0.10;;;;;;;;;;4936675;29;21064;-84
2024/01/09 06:27:52;;;;;;;0.20;0.13;;;;;;;;;;4951856;29;20070;-83
2024/01/09 06:30:18;;;;;;;0.20;0.10;;;;;;;;;;4931341;29;20119;-84
2024/01/09 06:32:44;;;;;;;0.20;0.10;;;;;;;;;;4941959;29;20503;-83
2024/01/09 06:35:10;;;;;;;0.20;0.10;;;;;;;;;;4927096;29;20043;-83
2024/01/09 06:37:36;;;;;;;0.20;0.10;;;;;;;;;;4947419;29;20043;-84
2024/01/09 06:40:03;;;;;;;0.20;0.10;;;;;;;;;;4936664;29;20054;-83
2024/01/09 06:42:29;;;;;;;0.20;0.10;;;;;;;;;;4949061;29;20051;-84
2024/01/09 06:44:55;;;;;;;0.20;0.10;;;;;;;;;;4932360;29;20039;-83
2024/01/09 06:47:21;;;;;;;0.20;0.10;;;;;;;;;;4951266;28;20041;-83
2024/01/09 06:49:47;;;;;;;0.20;0.10;;;;;;;;;;4950922;28;20042;-82
2024/01/09 06:52:13;;;;;;;0.20;0.10;;;;;;;;;;4931216;29;20043;-83
2024/01/09 06:54:39;;;;;;;0.20;0.10;;;;;;;;;;4934333;29;20036;-85
2024/01/09 06:57:05;;;;;;;0.20;0.10;;;;;;;;;;4924171;29;20476;-83
2024/01/09 06:59:31;;;;;;;0.20;0.10;;;;;;;;;;4935123;29;20138;-84
2024/01/09 07:01:57;;;;;;;0.20;0.10;;;;;;;;;;4947255;28;20035;-83
2024/01/09 07:04:24;;;;;;;0.20;0.10;;;;;;;;;;4935299;29;20036;-84
2024/01/09 07:06:50;;;;;;;0.20;0.10;;;;;;;;;;4930294;29;20326;-83
2024/01/09 07:09:16;;;;;;;0.20;0.10;;;;;;;;;;4934058;29;20392;-83
2024/01/09 07:11:42;;;;;;;0.20;0.10;;;;;;;;;;4944496;28;20413;-88
2024/01/09 07:14:09;;;;;;;0.20;0.10;;;;;;;;;;4950650;28;20039;-84
2024/01/09 07:16:36;;;;;;;0.20;0.10;;;;;;;;;;4935157;29;20110;-86
2024/01/09 07:19:02;;;;;;;0.20;0.10;;;;;;;;;;4933408;29;20046;-84
2024/01/09 07:21:28;;;;;;;0.20;0.10;;;;;;;;;;4949397;28;20031;-85
2024/01/09 07:23:54;;;;;;;0.20;0.10;;;;;;;;;;4947234;29;20035;-84
2024/01/09 07:26:20;;;;;;;0.20;0.10;;;;;;;;;;4935583;29;20098;-84
2024/01/09 07:28:46;;;;;;;0.20;0.10;;;;;;;;;;4939408;29;20050;-84
2024/01/09 07:31:12;;;;;;;0.20;0.10;;;;;;;;;;4933585;29;20070;-85
2024/01/09 07:33:38;;;;;;;0.20;0.00;;;;;;;;;;4932276;29;20101;-83
2024/01/09 07:36:05;;;;;;;0.20;0.10;;;;;;;;;;4938438;29;20094;-85
2024/01/09 07:38:31;;;;;;;0.20;0.10;;;;;;;;;;4948381;29;20039;-83
2024/01/09 07:40:57;;;;;;;0.20;0.10;;;;;;;;;;4947656;29;20039;-85
2024/01/09 07:43:23;;;;;;;0.20;0.08;;;;;;;;;;4937325;29;20039;-86
2024/01/09 07:45:50;;;;;;;0.20;0.10;;;;;;;;;;4952814;29;20039;-86
2024/01/09 07:48:16;;;;;;;0.20;0.10;;;;;;;;;;4953979;28;20046;-82
2024/01/09 07:50:42;;;;;;;0.20;0.10;;;;;;;;;;4952083;28;20411;-83
2024/01/09 07:53:08;;;;;;;0.20;0.15;;;;;;;;;;4952928;28;20039;-85
2024/01/09 07:55:34;;;;;;;0.20;0.10;;;;;;;;;;4947575;29;20060;-85
2024/01/09 07:58:00;;;;;;;0.20;0.10;;;;;;;;;;4949838;28;20051;-85
2024/01/09 08:00:26;;;;;;;0.20;0.10;;;;;;;;;;4929418;29;20040;-84
2024/01/09 08:02:52;;;;;;;0.20;0.10;;;;;;;;;;4948986;29;20039;-83
2024/01/09 08:05:18;;;;;;;0.20;0.10;;;;;;;;;;4937171;29;20291;-84
2024/01/09 08:07:44;;;;;;;0.20;0.08;;;;;;;;;;4954944;29;20087;-84
2024/01/09 08:10:10;;;;;;;0.20;0.05;;;;;;;;;;4934786;29;20054;-84
2024/01/09 08:12:36;;;;;;;0.20;0.10;;;;;;;;;;4934787;29;20073;-84
2024/01/09 08:15:03;;;;;;;0.20;0.10;;;;;;;;;;4940862;29;20415;-84
2024/01/09 08:17:29;;;;;;;0.20;0.10;;;;;;;;;;4939828;29;20047;-84
2024/01/09 08:19:55;;;;;;;0.20;0.00;;;;;;;;;;4950747;28;20044;-83
2024/01/09 08:22:21;;;;;;;0.20;0.10;;;;;;;;;;4952006;29;20106;-83
2024/01/09 08:24:47;;;;;;;0.20;0.10;;;;;;;;;;4950777;29;20054;-83
2024/01/09 08:27:13;;;;;;;0.35;0.35;;;;;;;;;;4940225;29;20043;-85
2024/01/09 08:29:39;;;;;;;0.20;0.10;;;;;;;;;;4935862;28;20115;-83
2024/01/09 08:32:05;;;;;;;0.20;0.10;;;;;;;;;;4971247;28;20516;-84
2024/01/09 08:34:31;;;;;;;0.20;0.10;;;;;;;;;;4950164;29;20138;-86
2024/01/09 08:36:57;;;;;;;0.20;0.10;;;;;;;;;;4945989;29;20126;-83
2024/01/09 08:39:23;;;;;;;0.20;0.10;;;;;;;;;;4950675;29;20526;-84
2024/01/09 08:41:49;;;;;;;0.40;0.20;;;;;;;;;;4948852;28;20083;-83
2024/01/09 08:44:17;;;;;;;0.20;0.10;;;;;;;;;;4950145;29;20039;-84
2024/01/09 08:46:43;;;;;;;0.20;0.10;;;;;;;;;;4932194;29;20031;-86
2024/01/09 08:49:09;;;;;;;0.20;0.10;;;;;;;;;;4930926;29;20149;-84
2024/01/09 08:51:35;;;;;;;0.20;0.10;;;;;;;;;;4950974;28;20115;-83
2024/01/09 08:54:01;;;;;;;0.20;0.10;;;;;;;;;;4933295;29;20342;-84
2024/01/09 08:56:27;;;;;;;0.20;0.10;;;;;;;;;;4951421;29;20103;-84
2024/01/09 08:58:53;;;;;;;0.20;0.10;;;;;;;;;;4948422;29;20066;-83
2024/01/09 09:01:22;;;;;;;0.20;0.10;;;;;;;;;;4934878;29;20503;-83
2024/01/09 09:03:49;;;;;;;0.20;0.10;;;;;;;;;;4950916;29;20035;-84
2024/01/09 09:06:16;;;;;;;0.20;0.10;;;;;;;;;;4943321;29;20578;-84
2024/01/09 09:08:42;;;;;;;0.20;0.10;;;;;;;;;;4949179;28;20058;-84
2024/01/09 09:11:08;;;;;;;0.20;0.10;;;;;;;;;;4932286;29;20055;-84
2024/01/09 09:13:34;;;;;;;0.20;0.10;;;;;;;;;;4930341;29;20640;-84
2024/01/09 09:16:00;;;;;;;0.20;0.10;;;;;;;;;;4943645;29;20157;-84
2024/01/09 09:18:27;;;;;;;0.20;0.10;;;;;;;;;;4929807;29;20152;-85
2024/01/09 09:20:53;;;;;;;0.20;0.10;;;;;;;;;;4920761;29;20039;-84
2024/01/09 09:23:19;;;;;;;0.20;0.10;;;;;;;;;;4922118;29;20105;-83
2024/01/09 09:25:46;;;;;;;0.20;0.10;;;;;;;;;;4950097;29;20129;-86
2024/01/09 09:28:13;;;;;;;0.20;0.10;;;;;;;;;;4931848;29;20047;-83
2024/01/09 09:30:39;;;;;;;0.20;0.10;;;;;;;;;;4933446;29;20134;-84
2024/01/09 09:33:05;;;;;;;0.20;0.10;;;;;;;;;;4946417;29;20043;-84
2024/01/09 09:35:31;;;;;;;0.20;0.10;;;;;;;;;;4929459;29;20327;-83
2024/01/09 09:37:57;;;;;;;0.20;0.20;;;;;;;;;;4947762;29;20070;-82
2024/01/09 09:40:23;;;;;;;0.20;0.10;;;;;;;;;;4938810;29;20073;-82
2024/01/09 09:42:55;;;;;;;0.20;0.10;;;;;;;;;;4948181;29;20036;-83
2024/01/09 09:45:21;;;;;;;0.20;0.10;;;;;;;;;;4943746;29;20044;-83
2024/01/09 09:47:49;;;;;;;0.20;0.10;;;;;;;;;;4933666;29;20122;-83
2024/01/09 09:50:15;;;;;;;0.20;0.10;;;;;;;;;;4922760;29;20478;-82
2024/01/09 09:52:42;;;;;;;0.20;0.10;;;;;;;;;;4948119;29;20043;-83
2024/01/09 09:55:11;;;;;;;0.20;0.10;;;;;;;;;;4946738;29;20127;-83
2024/01/09 09:57:37;;;;;;;0.45;0.38;;;;;;;;;;4930486;29;20039;-83
2024/01/09 10:00:10;;;;;;;0.20;0.10;;;;;;;;;;4931539;29;20035;-85
2024/01/09 10:02:44;;;;;;;0.20;0.10;;;;;;;;;;4942109;29;20039;-84
2024/01/09 10:05:13;;;;;;;0.20;0.10;;;;;;;;;;4938494;29;20047;-83
2024/01/09 10:07:40;;;;;;;0.20;0.10;;;;;;;;;;4947845;29;20587;-87
2024/01/09 10:10:08;;;;;;;0.20;0.10;;;;;;;;;;4929457;29;20189;-83
2024/01/09 10:12:34;;;;;;;0.20;0.10;;;;;;;;;;4929599;29;20094;-84
2024/01/09 10:15:05;;;;;;;0.20;0.10;;;;;;;;;;4947597;29;20144;-84
2024/01/09 10:17:31;;;;;;;0.20;0.10;;;;;;;;;;4942960;28;20047;-83
2024/01/09 10:19:57;;;;;;;0.20;0.10;;;;;;;;;;4946077;28;20038;-83
2024/01/09 10:22:23;;;;;;;0.20;0.10;;;;;;;;;;4946670;29;20036;-85
2024/01/09 10:24:50;;;;;;;0.30;0.20;;;;;;;;;;4950811;28;20058;-84
2024/01/09 10:27:21;;;;;;;0.20;0.10;;;;;;;;;;4934123;29;20129;-85
2024/01/09 10:29:47;;;;;;;0.20;0.03;;;;;;;;;;4957744;28;20043;-85
2024/01/09 10:32:21;;;;;;;0.20;0.10;;;;;;;;;;4961989;28;20039;-85
2024/01/09 10:34:47;;;;;;;0.20;0.10;;;;;;;;;;4932602;29;20109;-84
2024/01/09 10:37:13;;;;;;;0.20;0.10;;;;;;;;;;4933953;29;20070;-84
2024/01/09 10:39:40;;;;;;;0.20;0.10;;;;;;;;;;4928401;28;20046;-84
2024/01/09 10:42:10;;;;;;;0.20;0.08;;;;;;;;;;4946402;29;20066;-84
2024/01/09 10:44:39;;;;;;;0.20;0.10;;;;;;;;;;4932037;29;20040;-85
2024/01/09 10:47:09;;;;;;;0.20;0.03;;;;;;;;;;4934822;29;20500;-85
2024/01/09 10:49:35;;;;;;;0.20;0.10;;;;;;;;;;4934977;29;20420;-84
2024/01/09 10:52:02;;;;;;;0.20;0.10;;;;;;;;;;4948900;28;20157;-84
2024/01/09 10:54:30;;;;;;;0.20;0.10;;;;;;;;;;4933508;29;20043;-86
2024/01/09 10:56:56;;;;;;;0.20;0.10;;;;;;;;;;4929372;29;20264;-85
2024/01/09 10:59:23;;;;;;;0.30;0.30;;;;;;;;;;4947602;29;20126;-83
2024/01/09 11:01:49;;;;;;;0.20;0.10;;;;;;;;;;4930978;29;20105;-86
2024/01/09 11:04:15;;;;;;;0.20;0.10;;;;;;;;;;4934936;29;20084;-86
2024/01/09 11:06:41;;;;;;;0.20;0.05;;;;;;;;;;4945602;29;20542;-87
2024/01/09 11:09:08;;;;;;;0.20;0.10;;;;;;;;;;4951998;29;20403;-85
2024/01/09 11:11:36;;;;;;;0.20;0.10;;;;;;;;;;4948637;28;20574;-85
2024/01/09 11:14:06;;;;;;;0.20;0.10;;;;;;;;;;4945519;29;20051;-84
2024/01/09 11:16:36;;;;;;;0.20;0.10;;;;;;;;;;4929853;29;20039;-86
2024/01/09 11:19:03;;;;;;;0.20;0.10;;;;;;;;;;4931213;29;20114;-85
2024/01/09 11:21:30;;;;;;;0.20;0.10;;;;;;;;;;4949200;29;20067;-84
2024/01/09 11:23:59;;;;;;;0.20;0.10;;;;;;;;;;4932879;29;20031;-83
2024/01/09 11:26:30;;;;;;;0.20;0.10;;;;;;;;;;4947083;29;20046;-87
2024/01/09 11:28:58;;;;;;;0.20;0.05;;;;;;;;;;4935654;29;20090;-86
2024/01/09 11:31:25;;;;;;;0.20;0.10;;;;;;;;;;4946395;28;20047;-84
2024/01/09 11:33:51;;;;;;;0.20;0.10;;;;;;;;;;4931018;29;20051;-85
2024/01/09 11:36:30;;;;;;;0.20;0.10;;;;;;;;;;4943691;29;20459;-85
2024/01/09 11:38:56;;;;;;;0.20;0.00;;;;;;;;;;4932306;29;20452;-85
2024/01/09 11:41:23;;;;;;;0.20;0.10;;;;;;;;;;4930804;29;20039;-85
2024/01/09 11:44:00;;;;;;;0.20;0.05;;;;;;;;;;4930214;29;20504;-83
2024/01/09 11:46:27;;;;;;;0.20;0.10;;;;;;;;;;4931815;29;20043;-85
2024/01/09 11:48:53;;;;;;;1.58;0.63;;;;;;;;;;4947222;29;20039;-87
2024/01/09 11:51:21;;;;;;;0.20;0.10;;;;;;;;;;4945605;28;20412;-85
2024/01/09 11:53:48;;;;;;;0.20;0.00;;;;;;;;;;4930957;29;20039;-84
2024/01/09 11:56:14;;;;;;;0.20;0.10;;;;;;;;;;4929087;29;20409;-85
2024/01/09 11:58:40;;;;;;;0.20;0.00;;;;;;;;;;4928539;29;20248;-83
2024/01/09 12:01:06;;;;;;;0.20;0.10;;;;;;;;;;4948689;29;20035;-84
2024/01/09 12:03:33;;;;;;;0.20;0.10;;;;;;;;;;4929100;29;20496;-85
2024/01/09 12:06:00;;;;;;;0.20;0.10;;;;;;;;;;4949006;28;20047;-83
2024/01/09 12:08:26;;;;;;;0.20;0.10;;;;;;;;;;4931774;29;20500;-84
2024/01/09 12:10:52;;;;;;;0.20;0.15;;;;;;;;;;4946609;28;20501;-88
2024/01/09 12:13:18;;;;;;;0.20;0.10;;;;;;;;;;4931919;29;20043;-85
2024/01/09 12:15:44;;;;;;;0.20;0.00;;;;;;;;;;4927029;29;20178;-85
2024/01/09 12:18:10;;;;;;;0.20;0.10;;;;;;;;;;4947627;29;20051;-84
2024/01/09 12:20:36;;;;;;;0.20;0.10;;;;;;;;;;4933540;29;20047;-84
2024/01/09 12:23:03;;;;;;;0.20;0.10;;;;;;;;;;4925496;29;20126;-83
2024/01/09 12:25:29;;;;;;;0.20;0.10;;;;;;;;;;4933058;29;20122;-84
2024/01/09 12:27:55;;;;;;;0.20;0.10;;;;;;;;;;4924995;29;20047;-82
2024/01/09 12:30:23;;;;;;;0.20;0.10;;;;;;;;;;4948886;29;20058;-86
2024/01/09 12:32:49;;;;;;;0.20;0.10;;;;;;;;;;4930424;29;20084;-87
2024/01/09 12:35:15;;;;;;;0.20;0.10;;;;;;;;;;4949256;29;20416;-85
2024/01/09 12:37:41;;;;;;;0.20;0.10;;;;;;;;;;4948552;29;20039;-86
2024/01/09 12:40:21;;;;;;;0.20;0.10;;;;;;;;;;5109167;27;1263091;-85
2024/01/09 12:43:14;;;;;;;0.20;0.20;;;;;;;;;;5109649;27;20031;-83
2024/01/09 12:45:41;;;;;;;0.20;0.10;;;;;;;;;;5098988;27;20051;-83
2024/01/09 12:48:10;;;;;;;0.20;0.10;;;;;;;;;;5105050;27;20072;-82
2024/01/09 12:50:36;;;;;;;0.20;0.10;;;;;;;;;;5101430;27;20036;-83
2024/01/09 12:53:10;;;;;;;0.20;0.10;;;;;;;;;;5102892;27;20035;-86
2024/01/09 12:55:39;;;;;;;0.20;0.10;;;;;;;;;;5097641;27;20047;-89
2024/01/09 12:58:05;;;;;;;0.20;0.10;;;;;;;;;;5108936;27;20043;-83
2024/01/09 13:00:31;;;;;;;0.20;0.10;;;;;;;;;;5097262;27;20057;-83
2024/01/09 13:02:57;;;;;;;0.20;0.10;;;;;;;;;;5119910;27;20058;-82
2024/01/09 13:05:23;;;;;;;0.20;0.10;;;;;;;;;;5124216;27;20035;-84
2024/01/09 13:07:52;;;;;;;0.20;0.10;;;;;;;;;;5104801;27;20525;-81
2024/01/09 13:10:24;;;;;;;0.20;0.10;;;;;;;;;;5102675;27;20498;-88
2024/01/09 13:12:50;;;;;;;0.20;0.10;;;;;;;;;;5103858;27;20399;-85
2024/01/09 13:15:25;;;;;;;0.20;0.10;;;;;;;;;;5102024;27;20050;-87
2024/01/09 13:18:00;;;;;;;0.20;0.00;;;;;;;;;;5114715;27;20462;-87
2024/01/09 13:23:28;;;;;;;0.20;0.10;;;;;;;;;;5118351;27;20166;-83
2024/01/09 13:26:04;;;;;;;0.20;0.10;;;;;;;;;;5103920;27;20895;-84
2024/01/09 13:28:30;;;;;;;0.20;0.10;;;;;;;;;;5103374;27;20453;-82
2024/01/09 13:31:10;;;;;;;0.20;0.10;;;;;;;;;;5120449;27;20050;-84
2024/01/09 13:33:47;;;;;;;0.20;0.10;;;;;;;;;;5114605;27;20091;-85
2024/01/09 13:36:18;;;;;;;0.20;0.10;;;;;;;;;;5094928;28;20079;-85
2024/01/09 13:39:00;;;;;;;0.20;0.10;;;;;;;;;;5099851;27;20104;-84
2024/01/09 13:41:26;;;;;;;;;;;;;;;;;;5099074;27;20047;-87
2024/01/09 13:46:38;;;;;;;0.20;0.10;;;;;;;;;;5101346;27;20034;-83
2024/01/09 13:49:04;;;;;;;0.20;0.10;;;;;;;;;;5102073;27;20039;-83
2024/01/09 13:51:30;;;;;;;0.20;0.10;;;;;;;;;;5089057;27;20123;-84
2024/01/09 13:54:14;;;;;;;0.20;0.10;;;;;;;;;;5084928;27;20434;-84
2024/01/09 13:56:40;;;;;;;0.20;0.10;;;;;;;;;;5107661;27;20051;-83
2024/01/09 13:59:22;;;;;;;0.20;0.10;;;;;;;;;;5116571;27;20444;-85
2024/01/09 14:01:48;;;;;;;0.20;0.10;;;;;;;;;;5088653;27;20050;-86
2024/01/09 14:04:35;;;;;;;0.20;0.10;;;;;;;;;;5089907;28;20031;-86
2024/01/09 14:10:06;;;;;;;0.20;0.10;;;;;;;;;;5095104;27;20403;-85
2024/01/09 14:12:45;;;;;;;0.20;0.05;;;;;;;;;;5102173;27;20038;-87
2024/01/09 14:15:16;;;;;;;0.20;0.10;;;;;;;;;;5060239;28;20051;-83
2024/01/09 14:18:04;;;;;;;;;;;;;;;;;;;;;
2024/01/09 14:20:52;;;;;;;0.20;0.10;;;;;;;;;;5100557;27;20130;-85
2024/01/09 14:23:28;;;;;;;0.20;0.00;;;;;;;;;;5086392;27;20036;-85
2024/01/09 14:29:27;;;;;;;0.20;0.10;;;;;;;;;;5122374;27;20419;-83
2024/01/09 14:32:01;;;;;;;0.20;0.10;;;;;;;;;;5084214;27;20035;-86
2024/01/09 14:34:55;;;;;;;0.20;0.10;;;;;;;;;;5105863;27;20039;-85
2024/01/09 14:37:34;;;;;;;0.20;0.10;;;;;;;;;;5121483;27;20452;-85
2024/01/09 14:40:42;;;;;;;0.20;0.10;;;;;;;;;;5086817;27;20038;-86
2024/01/09 14:43:08;;;;;;;0.20;0.10;;;;;;;;;;4989491;28;20061;-82
2024/01/09 14:45:55;;;;;;;0.20;0.10;;;;;;;;;;4995211;27;20058;-83
2024/01/09 14:48:22;;;;;;;0.20;0.10;;;;;;;;;;5084231;27;20491;-85
2024/01/09 14:51:04;;;;;;;0.20;0.10;;;;;;;;;;5103754;27;20054;-85
2024/01/09 14:53:33;;;;;;;0.20;0.10;;;;;;;;;;5086436;27;20031;-84
2024/01/09 14:56:41;;;;;;;0.20;0.10;;;;;;;;;;5086362;27;20035;-85
2024/01/09 15:02:30;;;;;;;0.20;0.10;;;;;;;;;;5083965;27;20047;-84
2024/01/09 15:05:05;;;;;;;0.20;0.10;;;;;;;;;;5092938;27;20043;-85
2024/01/09 15:07:32;;;;;;;0.20;0.10;;;;;;;;;;5085486;27;20032;-85
2024/01/09 15:10:05;;;;;;;0.20;0.03;;;;;;;;;;5104179;27;20559;-84
2024/01/09 15:12:35;;;;;;;0.20;0.10;;;;;;;;;;5081871;27;20039;-86
2024/01/09 15:15:01;;;;;;;0.20;0.10;;;;;;;;;;5088791;27;20040;-87
2024/01/09 15:17:59;;;;;;;0.20;0.00;;;;;;;;;;5091870;27;20039;-85
2024/01/09 15:24:07;;;;;;;0.20;0.10;;;;;;;;;;5091468;27;20251;-85
2024/01/09 15:26:55;;;;;;;0.20;0.10;;;;;;;;;;5090777;27;20387;-85
2024/01/09 15:29:35;;;;;;;0.20;0.10;;;;;;;;;;5087484;27;20050;-86
2024/01/09 15:32:05;;;;;;;0.20;0.05;;;;;;;;;;5091691;27;20047;-86
2024/01/09 15:34:37;;;;;;;0.20;0.10;;;;;;;;;;5107189;27;20075;-85
2024/01/09 15:37:11;;;;;;;0.20;0.10;;;;;;;;;;5087582;27;20035;-85
2024/01/09 15:39:43;;;;;;;0.20;0.10;;;;;;;;;;5109945;27;20062;-86
2024/01/09 15:42:15;;;;;;;0.20;0.10;;;;;;;;;;5085363;27;20100;-85
2024/01/09 15:45:07;;;;;;;0.20;0.10;;;;;;;;;;5087144;27;20033;-85
2024/01/09 15:47:54;;;;;;;0.20;0.10;;;;;;;;;;5107361;27;20027;-86
2024/01/09 15:50:32;;;;;;;1.05;0.40;;;;;;;;;;5085295;27;20048;-85
2024/01/09 15:53:10;;;;;;;0.20;0.10;;;;;;;;;;5102230;27;20059;-85
2024/01/09 15:55:52;;;;;;;0.20;0.10;;;;;;;;;;5093524;27;20049;-86
2024/01/09 15:58:19;;;;;;;0.50;0.30;;;;;;;;;;5084616;27;20095;-85
2024/01/09 16:00:48;;;;;;;0.20;0.10;;;;;;;;;;5122180;27;20121;-84
2024/01/09 16:03:14;;;;;;;0.20;0.10;;;;;;;;;;5105062;27;20051;-85
2024/01/09 16:05:40;;;;;;;0.20;0.10;;;;;;;;;;5104613;27;20483;-85
2024/01/09 16:08:15;;;;;;;0.20;0.10;;;;;;;;;;5088282;27;20372;-85
2024/01/09 16:10:44;;;;;;;0.20;0.10;;;;;;;;;;5121316;27;20045;-85
2024/01/09 16:13:12;;;;;;;0.20;0.10;;;;;;;;;;5086577;27;20100;-84
2024/01/09 16:15:50;;;;;;;;;;;;;;;;;;;;;
2024/01/09 16:18:20;;;;;;;0.20;0.10;;;;;;;;;;5102863;27;20043;-85
2024/01/09 16:20:55;;;;;;;0.20;0.10;;;;;;;;;;5099925;27;20178;-85
2024/01/09 16:23:23;;;;;;;0.20;0.10;;;;;;;;;;5084578;27;20403;-86
2024/01/09 16:25:51;;;;;;;0.20;0.10;;;;;;;;;;5085629;27;20586;-84
2024/01/09 16:28:23;;;;;;;0.20;0.10;;;;;;;;;;5101916;27;20042;-87
2024/01/09 16:30:49;;;;;;;0.20;0.10;;;;;;;;;;5085035;28;20046;-85
2024/01/09 16:33:20;;;;;;;0.20;0.10;;;;;;;;;;5088844;27;20491;-86
2024/01/09 16:35:47;;;;;;;0.20;0.13;;;;;;;;;;5083242;28;20046;-85
2024/01/09 16:38:14;;;;;;;0.20;0.10;;;;;;;;;;5087279;27;20047;-86
2024/01/09 16:40:42;;;;;;;0.20;0.10;;;;;;;;;;5089486;28;20051;-83
2024/01/09 16:43:08;;;;;;;0.20;0.10;;;;;;;;;;5087265;27;20320;-86
2024/01/09 16:45:38;;;;;;;0.20;0.10;;;;;;;;;;5090734;28;20108;-86
2024/01/09 16:48:04;;;;;;;0.20;0.10;;;;;;;;;;5089943;28;20035;-85
2024/01/09 16:50:36;;;;;;;0.20;0.10;;;;;;;;;;5089213;28;20035;-86
2024/01/09 16:53:03;;;;;;;0.20;0.10;;;;;;;;;;5103990;28;20046;-85
2024/01/09 16:55:29;;;;;;;0.20;0.10;;;;;;;;;;5089952;28;20044;-84
2024/01/09 16:58:04;;;;;;;0.20;0.08;;;;;;;;;;5085522;28;20047;-85
2024/01/09 17:00:32;;;;;;;0.20;0.10;;;;;;;;;;5107930;27;20119;-85
2024/01/09 17:03:00;;;;;;;0.20;0.10;;;;;;;;;;5091186;28;20138;-86
2024/01/09 17:05:26;;;;;;;0.20;0.10;;;;;;;;;;5091348;27;20347;-85
2024/01/09 17:07:55;;;;;;;0.20;0.10;;;;;;;;;;5103320;28;20039;-85
2024/01/09 17:10:21;;;;;;;0.20;0.10;;;;;;;;;;5102690;27;20047;-84
2024/01/09 17:12:48;;;;;;;0.20;0.10;;;;;;;;;;5086460;28;20126;-83
2024/01/09 17:15:14;;;;;;;0.20;0.10;;;;;;;;;;5080014;27;20244;-85
2024/01/09 17:17:41;;;;;;;0.20;0.20;;;;;;;;;;5086197;28;20043;-85
2024/01/09 17:20:07;;;;;;;0.20;0.10;;;;;;;;;;5085433;28;20071;-85
2024/01/09 17:22:34;;;;;;;0.28;0.15;;;;;;;;;;5106926;27;20387;-85
2024/01/09 17:25:00;;;;;;;0.20;0.10;;;;;;;;;;5087384;27;20123;-86
2024/01/09 17:27:26;;;;;;;0.20;0.10;;;;;;;;;;5107064;27;20027;-87
2024/01/09 17:29:52;;;;;;;0.20;0.10;;;;;;;;;;5106111;27;20031;-83
2024/01/09 17:32:20;;;;;;;0.20;0.10;;;;;;;;;;5086055;27;20039;-84
2024/01/09 17:34:49;;;;;;;0.20;0.10;;;;;;;;;;5099901;27;20044;-85
2024/01/09 17:37:18;;;;;;;0.20;0.10;;;;;;;;;;5096718;27;20130;-85
2024/01/09 17:39:44;;;;;;;0.20;0.10;;;;;;;;;;5090373;27;20126;-86
2024/01/09 17:42:10;;;;;;;0.20;0.10;;;;;;;;;;5087354;27;20035;-84
2024/01/09 17:44:36;;;;;;;0.20;0.10;;;;;;;;;;5091885;27;20039;-85
2024/01/09 17:47:05;;;;;;;0.20;0.10;;;;;;;;;;5105121;27;20031;-84
2024/01/09 17:49:31;;;;;;;0.20;0.10;;;;;;;;;;5103781;27;20051;-85
2024/01/09 17:51:57;;;;;;;0.20;0.10;;;;;;;;;;5086951;28;20040;-84
2024/01/09 17:54:23;;;;;;;0.40;0.20;;;;;;;;;;5087701;27;20093;-85
2024/01/09 17:56:49;;;;;;;0.20;0.10;;;;;;;;;;5089911;27;20074;-83
2024/01/09 17:59:15;;;;;;;0.20;0.10;;;;;;;;;;5104222;27;20524;-84
2024/01/09 18:01:44;;;;;;;0.20;0.10;;;;;;;;;;5108798;27;20035;-85
2024/01/09 18:04:16;;;;;;;0.20;0.10;;;;;;;;;;5086968;27;20043;-84
2024/01/09 18:06:45;;;;;;;0.20;0.10;;;;;;;;;;5087872;27;20035;-84
2024/01/09 18:09:11;;;;;;;0.20;0.10;;;;;;;;;;5099575;27;20060;-84
2024/01/09 18:11:37;;;;;;;0.20;0.00;;;;;;;;;;5086430;27;20491;-85
2024/01/09 18:14:03;;;;;;;0.20;0.10;;;;;;;;;;5107649;27;20039;-85
2024/01/09 18:16:29;;;;;;;0.20;0.05;;;;;;;;;;5087823;27;20039;-84
2024/01/09 18:18:56;;;;;;;0.20;0.10;;;;;;;;;;5093366;27;20066;-85
2024/01/09 18:21:23;;;;;;;0.20;0.10;;;;;;;;;;5087191;27;20159;-84
2024/01/09 18:23:49;;;;;;;0.20;0.10;;;;;;;;;;5101460;27;20503;-85
2024/01/09 18:26:15;;;;;;;0.20;0.10;;;;;;;;;;5086859;27;20549;-84
2024/01/09 18:28:41;;;;;;;0.20;0.10;;;;;;;;;;5089410;27;20076;-84
2024/01/09 18:31:07;;;;;;;0.20;0.10;;;;;;;;;;5077644;27;20035;-84
2024/01/09 18:33:33;;;;;;;0.20;0.10;;;;;;;;;;5086953;27;20051;-85
2024/01/09 18:36:03;;;;;;;0.20;0.10;;;;;;;;;;5101422;27;20031;-84
2024/01/09 18:38:29;;;;;;;0.20;0.10;;;;;;;;;;5099437;27;20028;-84
2024/01/09 18:40:55;;;;;;;0.20;0.20;;;;;;;;;;5100926;27;20420;-84
2024/01/09 18:43:21;;;;;;;0.20;0.10;;;;;;;;;;5102476;27;20403;-83
2024/01/09 18:45:47;;;;;;;0.20;0.10;;;;;;;;;;5087435;27;20067;-84
2024/01/09 18:48:16;;;;;;;0.30;0.20;;;;;;;;;;5101918;27;20125;-84
2024/01/09 18:50:44;;;;;;;0.20;0.10;;;;;;;;;;5084615;27;20193;-84
2024/01/09 19:15:54;;;;;;;0.20;0.10;;;;;;;;;;5038491;28;20388;-88
2024/01/09 21:01:30;;;;;;;0.20;0.10;;;;;;;;;;4905517;29;20119;-89
2024/01/09 21:04:18;;;;;;;0.20;0.10;;;;;;;;;;4949340;23;21250;-88
2024/01/09 21:10:09;;;;;;;0.47;0.47;;;;;;;;;;4956486;28;20055;-90
2024/01/09 21:15:57;;;;;;;0.20;0.10;;;;;;;;;;4953030;23;20287;-84
2024/01/09 21:18:23;;;;;;;0.20;0.10;;;;;;;;;;4946965;28;20570;-82
2024/01/09 21:20:49;;;;;;;0.20;0.10;;;;;;;;;;4959045;28;20088;-83
2024/01/09 21:23:18;;;;;;;0.20;0.10;;;;;;;;;;4954189;28;20428;-85
2024/01/09 21:25:44;;;;;;;0.20;0.10;;;;;;;;;;4959473;28;20041;-82
2024/01/09 21:28:11;;;;;;;0.20;0.13;;;;;;;;;;4982774;28;20046;-82
2024/01/09 21:30:37;;;;;;;0.30;0.28;;;;;;;;;;4945312;28;20097;-84
2024/01/09 21:33:03;;;;;;;0.20;0.10;;;;;;;;;;4971089;28;20035;-84